Ashville, OH (43103)

10:03 AM EST on January 28, 2015 (GMT -0500)
Pickaway-Fairfield Line | Change Station
CLOSE
Current Station
Personal Weather Station
Location: Ashville, OH
Elevation: 815 ft
Nearby Weather Stations

Elev 815 ft 39.71 °N, 82.84 °W | Updated 14 minutes ago

Partly Cloudy
Partly Cloudy
13.5 °F
Feels Like 14 °F
N
1.7
Wind Variable Wind from East

Today
High -- | Low -- °F
--% Chance of Precip.
Yesterday
High -- | Low -- °F
Precip. -- in
7:43 AM 5:46 PM
Waxing Gibbous, 65% visible
Pressure 30.40 in
Visibility 5.0 miles
Clouds Clear
Windchill 14 °F
Dew Point 9 °F
Humidity 83%
Rainfall 0.00 in
Snow Depth Not available.
UV 1 out of 12
Pollen .10 out of 12
Air Quality Not available.
Flu Activity Not available.
METAR KLCK 281455Z AUTO 23003KT 5SM BR CLR M11/M13 A3040 RMK AO2 T11111128

More Conditions Fewer Conditions

Pressure 30.40 in
Visibility 5.0 miles
Clouds Clear
Windchill 14 °F
Dew Point 9 °F
Humidity 83%
Rainfall 0.00 in
Snow Depth Not available.
UV 1 out of 12
Pollen .10 out of 12
Air Quality Not available.
Flu Activity Not available.
METAR KLCK 281455Z AUTO 23003KT 5SM BR CLR M11/M13 A3040 RMK AO2 T11111128

More Conditions Fewer Conditions

10-Day Weather Forecast

Almanac

Astronomy

Jan. 28, 2015 Rise Set
Actual Time
Civil Twilight
Nautical Twilight
Astronomical Twilight
Moon
Length of Visible Light
Length of Day
Tomorrow will be .
, % of the Moon is Illuminated

Today's Extremes

State Highs State Lows

Community

WunderPhotos

Upload Photos

1,791,162 photos uploaded!

WunderBlogs® & News

Nearby

Air Quality

  Air Quality AQ Index Pollutant
Not available.

Snow Depth

Station Depth Elevation

Earthquake Activity

City Distance Mag. Time & Date
Minimum magnitude displayed is 2.5.

Coastal Water Temperatures

Place Temperature

Nearby Weather Stations